Time;durP1;ratioP1;P1;durP2;ratioP2;P2;SDS_P1;SDS_P2;PMS_P1;PMS_P2;Temp;Humidity;BMP_temperature;BMP_pressure;BME280_temperature;BME280_humidity;BME280_pressure;Samples;Min_cycle;Max_cycle;Signal;HPM_P1;HPM_P2
2022/01/11 00:00:57;;;;;;;33.83;21.52;;;3.00;86.50;;;;;;5033508;28;20049;-86
2022/01/11 00:03:24;;;;;;;29.55;20.52;;;3.00;86.50;;;;;;5035211;28;20511;-85
2022/01/11 00:08:29;;;;;;;32.17;20.63;;;3.00;86.50;;;;;;5033600;28;20060;-86
2022/01/11 00:11:04;;;;;;;38.72;21.90;;;3.00;86.50;;;;;;5034402;28;20045;-86
2022/01/11 00:13:34;;;;;;;30.58;20.35;;;2.90;86.40;;;;;;5034501;28;20095;-85
2022/01/11 00:16:02;;;;;;;32.80;20.65;;;2.90;86.40;;;;;;5033725;28;20049;-86
2022/01/11 00:18:30;;;;;;;39.50;21.65;;;2.90;86.40;;;;;;5031408;28;20076;-85
2022/01/11 00:20:57;;;;;;;33.95;20.85;;;2.90;86.40;;;;;;5032963;28;20049;-86
2022/01/11 00:25:55;;;;;;;31.10;20.63;;;2.90;86.40;;;;;;5034104;28;20046;-86
2022/01/11 00:28:25;;;;;;;32.88;21.33;;;2.90;86.40;;;;;;5033969;28;20048;-86
2022/01/11 00:30:54;;;;;;;31.67;21.00;;;2.90;86.30;;;;;;5033004;28;20053;-86
2022/01/11 00:33:39;;;;;;;39.33;21.98;;;2.90;86.30;;;;;;5034114;28;20063;-86
2022/01/11 00:36:07;;;;;;;;;;;2.90;86.30;;;;;;5034435;28;20029;-86
2022/01/11 00:38:36;;;;;;;32.50;21.13;;;2.90;86.30;;;;;;5033855;28;19921;-85
2022/01/11 00:41:07;;;;;;;34.42;20.70;;;2.90;86.30;;;;;;5033781;28;20414;-86
2022/01/11 00:43:35;;;;;;;31.17;21.50;;;2.90;86.30;;;;;;5032439;28;20051;-86
2022/01/11 00:46:04;;;;;;;33.10;22.15;;;2.80;86.30;;;;;;5033381;28;20398;-86
2022/01/11 00:48:31;;;;;;;35.47;21.65;;;2.90;86.30;;;;;;5031201;28;20387;-86
2022/01/11 00:51:00;;;;;;;32.08;21.13;;;2.80;86.30;;;;;;5033583;28;20053;-86
2022/01/11 00:53:27;;;;;;;27.85;20.25;;;2.80;86.30;;;;;;5033710;28;20056;-86
2022/01/11 00:55:54;;;;;;;36.13;21.67;;;2.80;86.30;;;;;;5033680;28;20438;-86
2022/01/11 00:58:22;;;;;;;33.80;21.95;;;2.80;86.30;;;;;;5033623;28;20048;-86
2022/01/11 01:00:50;;;;;;;31.92;21.40;;;2.80;86.20;;;;;;5032471;28;20052;-86
2022/01/11 01:03:17;;;;;;;39.10;22.52;;;2.80;86.20;;;;;;5032966;28;20054;-86
2022/01/11 01:05:45;;;;;;;34.38;21.02;;;2.80;86.20;;;;;;5033315;28;20132;-86
2022/01/11 01:08:12;;;;;;;35.92;21.45;;;2.80;86.20;;;;;;5033206;28;21649;-86
2022/01/11 01:10:45;;;;;;;33.33;21.60;;;2.80;86.20;;;;;;5033468;28;20239;-86
2022/01/11 01:13:17;;;;;;;39.78;21.90;;;2.80;86.20;;;;;;5033444;28;20053;-86
2022/01/11 01:15:49;;;;;;;31.63;21.35;;;2.80;86.20;;;;;;5030927;28;20049;-86
2022/01/11 01:18:29;;;;;;;33.45;22.48;;;2.80;86.20;;;;;;5033854;28;20048;-85
2022/01/11 01:20:56;;;;;;;31.90;21.90;;;2.80;86.20;;;;;;5032456;28;20045;-86
2022/01/11 01:23:24;;;;;;;31.15;21.00;;;2.80;86.20;;;;;;5033136;28;20045;-86
2022/01/11 01:25:52;;;;;;;30.10;20.75;;;2.80;86.20;;;;;;5033218;28;20045;-85
2022/01/11 01:28:19;;;;;;;33.08;21.30;;;2.80;86.20;;;;;;5017135;28;20517;-85
2022/01/11 01:30:48;;;;;;;35.25;21.88;;;2.80;86.20;;;;;;5027199;28;20049;-86
2022/01/11 01:33:16;;;;;;;32.40;21.10;;;2.80;86.10;;;;;;5034536;28;20179;-86
2022/01/11 01:35:48;;;;;;;36.47;21.67;;;2.80;86.10;;;;;;5033004;28;20067;-86
2022/01/11 01:38:21;;;;;;;35.45;22.17;;;2.80;86.20;;;;;;5033022;28;20051;-86
2022/01/11 01:40:49;;;;;;;35.85;21.60;;;2.80;86.10;;;;;;5033128;28;20056;-87
2022/01/11 01:43:18;;;;;;;31.08;21.95;;;2.80;86.10;;;;;;5032957;28;20047;-86
2022/01/11 01:45:46;;;;;;;34.55;21.90;;;2.80;86.10;;;;;;5032244;28;20053;-86
2022/01/11 01:48:15;;;;;;;33.45;21.42;;;2.80;86.10;;;;;;5032889;28;20057;-85
2022/01/11 01:50:43;;;;;;;32.10;22.02;;;2.80;86.10;;;;;;5032893;28;20054;-86
2022/01/11 01:53:12;;;;;;;31.23;21.95;;;2.80;86.10;;;;;;5032874;28;20053;-86
2022/01/11 01:55:44;;;;;;;36.08;23.23;;;2.80;86.10;;;;;;5032902;28;20116;-85
2022/01/11 01:58:12;;;;;;;35.38;21.75;;;2.70;86.10;;;;;;5032643;28;20045;-85
2022/01/11 02:00:42;;;;;;;33.80;22.13;;;2.80;86.10;;;;;;5032113;28;20571;-86
2022/01/11 02:03:13;;;;;;;41.60;22.23;;;2.80;86.10;;;;;;5032600;28;20092;-86
2022/01/11 02:05:42;;;;;;;32.90;21.92;;;2.80;86.10;;;;;;5032736;28;20056;-85
2022/01/11 02:08:11;;;;;;;43.40;22.40;;;2.70;86.10;;;;;;5032497;28;20067;-89
2022/01/11 02:10:39;;;;;;;35.47;20.92;;;2.80;86.10;;;;;;5033024;28;20064;-88
2022/01/11 02:13:08;;;;;;;39.88;21.98;;;2.80;86.10;;;;;;5032486;28;20045;-88
2022/01/11 02:15:37;;;;;;;36.03;22.27;;;2.80;86.10;;;;;;5031794;28;20054;-88
2022/01/11 02:18:18;;;;;;;37.83;22.38;;;2.70;86.10;;;;;;5032758;28;20042;-87
2022/01/11 02:20:49;;;;;;;40.50;22.58;;;2.70;86.10;;;;;;5032605;28;20042;-87
2022/01/11 02:23:18;;;;;;;38.13;21.10;;;2.70;86.10;;;;;;5032557;28;20502;-87
2022/01/11 02:25:46;;;;;;;32.13;21.17;;;2.70;86.10;;;;;;5032547;28;20419;-87
2022/01/11 02:28:16;;;;;;;34.15;21.80;;;2.70;86.10;;;;;;5032264;28;20056;-87
2022/01/11 02:30:44;;;;;;;38.00;22.38;;;2.70;86.00;;;;;;5031862;28;20159;-87
2022/01/11 02:33:25;;;;;;;37.08;21.90;;;2.70;86.00;;;;;;5036116;28;20045;-87
2022/01/11 02:35:53;;;;;;;33.20;20.38;;;2.70;86.00;;;;;;5036101;28;20053;-87
2022/01/11 02:38:20;;;;;;;35.33;21.60;;;2.70;86.00;;;;;;5036015;28;20433;-88
2022/01/11 02:40:47;;;;;;;35.60;20.98;;;2.70;86.00;;;;;;5067596;28;20087;-87
2022/01/11 02:43:14;;;;;;;34.13;19.55;;;2.70;86.00;;;;;;5036186;28;20510;-88
2022/01/11 02:45:41;;;;;;;31.85;20.48;;;2.70;86.00;;;;;;5035166;28;20045;-87
2022/01/11 02:48:09;;;;;;;37.03;20.75;;;2.70;86.00;;;;;;5067821;28;20041;-87
2022/01/11 02:50:36;;;;;;;39.58;21.52;;;2.70;86.00;;;;;;5035595;28;20053;-87
2022/01/11 02:53:03;;;;;;;35.65;20.35;;;2.60;85.90;;;;;;5034613;28;20042;-87
2022/01/11 02:55:33;;;;;;;36.15;19.58;;;2.60;86.00;;;;;;5035824;28;20436;-87
2022/01/11 02:58:00;;;;;;;31.42;19.85;;;2.60;85.90;;;;;;5035763;28;20041;-87
2022/01/11 03:00:27;;;;;;;31.60;20.45;;;2.60;85.90;;;;;;5033845;28;20520;-88
2022/01/11 03:02:55;;;;;;;29.65;19.17;;;2.60;85.90;;;;;;5035724;28;20042;-87
2022/01/11 03:05:22;;;;;;;32.00;19.27;;;2.60;85.90;;;;;;5035501;28;20401;-87
2022/01/11 03:07:49;;;;;;;31.95;19.25;;;2.60;85.90;;;;;;5035509;28;20049;-87
2022/01/11 03:12:44;;;;;;;33.47;19.88;;;2.60;85.90;;;;;;5030663;28;20045;-87
2022/01/11 03:15:12;;;;;;;29.85;19.10;;;2.60;85.90;;;;;;5035394;28;20055;-87
2022/01/11 03:17:39;;;;;;;35.70;20.42;;;2.60;85.90;;;;;;5034210;28;20121;-87
2022/01/11 03:20:07;;;;;;;31.98;19.85;;;2.60;85.80;;;;;;5067010;28;20498;-86
2022/01/11 03:22:34;;;;;;;39.38;20.63;;;2.60;85.80;;;;;;5035393;28;20048;-87
2022/01/11 03:25:02;;;;;;;35.72;19.80;;;2.50;85.80;;;;;;5033838;28;20053;-87
2022/01/11 03:27:29;;;;;;;34.60;20.77;;;2.50;85.80;;;;;;5032361;28;20059;-87
2022/01/11 03:29:56;;;;;;;29.55;20.25;;;2.60;85.80;;;;;;5034013;28;20053;-87
2022/01/11 03:32:23;;;;;;;29.10;19.25;;;2.50;85.80;;;;;;5033923;28;20045;-86
2022/01/11 03:35:04;;;;;;;32.85;19.15;;;2.50;85.80;;;;;;5033935;28;20572;-86
2022/01/11 03:37:31;;;;;;;27.52;18.05;;;2.50;85.80;;;;;;5035196;28;20041;-87
2022/01/11 03:39:59;;;;;;;31.40;19.88;;;2.50;85.80;;;;;;5034411;28;20061;-87
2022/01/11 03:42:26;;;;;;;32.92;19.95;;;2.50;85.80;;;;;;5032843;28;20045;-87
2022/01/11 03:44:54;;;;;;;29.27;19.00;;;2.50;85.80;;;;;;5033202;28;20049;-87
2022/01/11 03:47:21;;;;;;;27.88;19.05;;;2.50;85.80;;;;;;5034818;28;20045;-87
2022/01/11 03:49:49;;;;;;;37.03;19.65;;;2.50;85.80;;;;;;5034793;28;20049;-87
2022/01/11 03:52:16;;;;;;;35.42;19.80;;;2.50;85.80;;;;;;5034789;28;20049;-87
2022/01/11 03:57:24;;;;;;;43.10;19.85;;;2.50;85.80;;;;;;5035155;28;20045;-87
2022/01/11 03:59:52;;;;;;;32.38;19.75;;;2.50;85.80;;;;;;5034612;28;20234;-87
2022/01/11 04:02:20;;;;;;;27.35;19.15;;;2.50;85.80;;;;;;5034654;28;20421;-88
2022/01/11 04:04:52;;;;;;;29.95;18.77;;;2.50;85.80;;;;;;5034554;28;20127;-87
2022/01/11 04:07:21;;;;;;;29.67;18.98;;;2.50;85.80;;;;;;5018637;28;20057;-87
2022/01/11 04:09:50;;;;;;;31.05;18.85;;;2.50;85.80;;;;;;5033699;28;20518;-87
2022/01/11 04:12:18;;;;;;;31.77;20.00;;;2.50;85.80;;;;;;5034222;28;20053;-87
2022/01/11 04:14:45;;;;;;;33.28;18.92;;;2.50;85.80;;;;;;5034635;28;20495;-88
2022/01/11 04:17:13;;;;;;;27.92;18.08;;;2.50;85.80;;;;;;5066233;28;20045;-87
2022/01/11 04:19:40;;;;;;;32.28;19.15;;;2.50;85.80;;;;;;5034342;28;20052;-88
2022/01/11 04:22:08;;;;;;;30.77;19.25;;;2.50;85.80;;;;;;5032776;28;20076;-87
2022/01/11 04:24:35;;;;;;;29.65;19.25;;;2.50;85.80;;;;;;5032255;28;20045;-87
2022/01/11 04:27:02;;;;;;;28.38;18.80;;;2.50;85.80;;;;;;5034213;28;20525;-87
2022/01/11 04:29:29;;;;;;;31.20;19.75;;;2.50;85.80;;;;;;5033975;28;20051;-88
2022/01/11 04:31:56;;;;;;;33.17;19.33;;;2.40;85.70;;;;;;5034031;28;20049;-87
2022/01/11 04:34:25;;;;;;;31.58;18.85;;;2.50;85.70;;;;;;5034166;28;20050;-87
2022/01/11 04:36:52;;;;;;;33.22;19.25;;;2.40;85.70;;;;;;5031549;28;20053;-87
2022/01/11 04:39:19;;;;;;;30.42;18.80;;;2.40;85.70;;;;;;5034030;28;20055;-87
2022/01/11 04:41:46;;;;;;;32.28;19.45;;;2.40;85.70;;;;;;5033888;28;20055;-88
2022/01/11 04:44:13;;;;;;;31.98;19.88;;;2.40;85.70;;;;;;5033889;28;20063;-87
2022/01/11 04:46:41;;;;;;;32.10;20.95;;;2.40;85.70;;;;;;5033950;28;20067;-87
2022/01/11 04:49:08;;;;;;;33.97;19.38;;;2.40;85.70;;;;;;5032600;28;20053;-88
2022/01/11 04:51:35;;;;;;;36.53;20.25;;;2.40;85.70;;;;;;5032611;28;20059;-87
2022/01/11 04:54:02;;;;;;;31.25;20.83;;;2.40;85.60;;;;;;5033712;28;20048;-87
2022/01/11 04:56:29;;;;;;;33.83;19.60;;;2.40;85.60;;;;;;5033877;28;20049;-87
2022/01/11 04:58:57;;;;;;;32.25;20.05;;;2.40;85.60;;;;;;5033415;28;20399;-87
2022/01/11 05:01:25;;;;;;;35.42;21.00;;;2.40;85.60;;;;;;5032557;28;20429;-87
2022/01/11 05:03:52;;;;;;;33.53;20.85;;;2.40;85.60;;;;;;5032759;28;20055;-88
2022/01/11 05:06:19;;;;;;;36.25;22.17;;;2.40;85.60;;;;;;5033153;28;20096;-87
2022/01/11 05:08:48;;;;;;;34.30;21.48;;;2.40;85.70;;;;;;5032252;28;20283;-87
2022/01/11 05:11:16;;;;;;;30.10;19.85;;;2.40;85.60;;;;;;5033240;28;20045;-87
2022/01/11 05:13:43;;;;;;;36.55;21.83;;;2.40;85.60;;;;;;5033351;28;20051;-87
2022/01/11 05:16:10;;;;;;;33.88;22.00;;;2.40;85.60;;;;;;5033232;28;20057;-87
2022/01/11 05:18:38;;;;;;;33.40;21.90;;;2.40;85.60;;;;;;5032589;28;20053;-87
2022/01/11 05:21:05;;;;;;;37.10;21.55;;;2.40;85.60;;;;;;5032824;28;20041;-87
2022/01/11 05:23:34;;;;;;;37.80;22.20;;;2.30;85.60;;;;;;5033255;28;20136;-87
2022/01/11 05:26:02;;;;;;;31.27;21.27;;;2.30;85.60;;;;;;5033384;28;20057;-87
2022/01/11 05:28:30;;;;;;;39.80;22.25;;;2.40;85.60;;;;;;5032002;28;20049;-87
2022/01/11 05:30:58;;;;;;;35.15;22.92;;;2.30;85.60;;;;;;5032490;28;20053;-87
2022/01/11 05:33:25;;;;;;;39.13;22.95;;;2.30;85.60;;;;;;5032643;28;20053;-87
2022/01/11 05:35:52;;;;;;;38.33;22.25;;;2.30;85.60;;;;;;5032658;28;20417;-87
2022/01/11 05:38:19;;;;;;;37.05;22.42;;;2.30;85.60;;;;;;5033169;28;20057;-87
2022/01/11 05:40:46;;;;;;;39.72;23.15;;;2.30;85.60;;;;;;5033335;28;20491;-87
2022/01/11 05:43:14;;;;;;;40.75;23.55;;;2.30;85.60;;;;;;5033255;28;20053;-87
2022/01/11 05:45:42;;;;;;;40.78;22.90;;;2.30;85.50;;;;;;5030979;28;20140;-87
2022/01/11 05:48:09;;;;;;;38.80;23.38;;;2.30;85.60;;;;;;5032920;28;20049;-87
2022/01/11 05:50:38;;;;;;;37.15;22.77;;;2.30;85.50;;;;;;5032504;28;20049;-87
2022/01/11 05:53:06;;;;;;;35.65;21.27;;;2.20;85.50;;;;;;5032861;28;20041;-87
2022/01/11 05:55:33;;;;;;;34.55;22.17;;;2.20;85.50;;;;;;5032789;28;20045;-87
2022/01/11 05:58:01;;;;;;;34.63;21.38;;;2.20;85.50;;;;;;5032729;28;20077;-87
2022/01/11 06:00:28;;;;;;;37.25;22.58;;;2.20;85.50;;;;;;5032105;28;20046;-87
2022/01/11 06:02:55;;;;;;;49.35;22.58;;;2.20;85.50;;;;;;5032757;28;20045;-87
2022/01/11 06:05:24;;;;;;;33.55;21.42;;;2.20;85.50;;;;;;5032498;28;20403;-87
2022/01/11 06:07:51;;;;;;;34.35;21.73;;;2.20;85.50;;;;;;5034786;28;20536;-87
2022/01/11 06:10:19;;;;;;;34.03;21.05;;;2.20;85.50;;;;;;5021128;28;20063;-87
2022/01/11 06:12:46;;;;;;;41.17;22.55;;;2.20;85.50;;;;;;5031962;28;20092;-87
2022/01/11 06:15:14;;;;;;;38.00;21.88;;;2.20;85.40;;;;;;5036555;28;20053;-87
2022/01/11 06:17:41;;;;;;;35.88;21.83;;;2.20;85.40;;;;;;5036462;28;20037;-87
2022/01/11 06:20:09;;;;;;;36.78;22.45;;;2.20;85.40;;;;;;5035080;28;20045;-87
2022/01/11 06:22:37;;;;;;;38.80;23.15;;;2.10;85.40;;;;;;5036608;28;20042;-87
2022/01/11 06:25:06;;;;;;;38.78;22.60;;;2.10;85.40;;;;;;5035472;28;20056;-87
2022/01/11 06:27:34;;;;;;;40.78;23.00;;;2.10;85.40;;;;;;5035600;28;20498;-86
2022/01/11 06:30:01;;;;;;;45.13;23.60;;;2.10;85.40;;;;;;5036355;28;20133;-87
2022/01/11 06:32:28;;;;;;;39.85;24.65;;;2.10;85.40;;;;;;5036096;28;20061;-88
2022/01/11 06:34:55;;;;;;;42.30;24.65;;;2.10;85.40;;;;;;5036082;28;20052;-87
2022/01/11 06:37:23;;;;;;;40.92;25.08;;;2.10;85.40;;;;;;5036304;28;20041;-87
2022/01/11 06:39:50;;;;;;;41.97;25.27;;;2.10;85.40;;;;;;5035506;28;20057;-87
2022/01/11 06:42:17;;;;;;;47.83;27.73;;;2.10;85.40;;;;;;5034668;28;20053;-87
2022/01/11 06:44:44;;;;;;;42.10;26.13;;;2.00;85.40;;;;;;5036059;28;20042;-86
2022/01/11 06:47:12;;;;;;;44.67;26.00;;;2.00;85.40;;;;;;5035646;28;20600;-87
2022/01/11 06:49:40;;;;;;;42.15;26.15;;;2.00;85.40;;;;;;5034830;28;20045;-87
2022/01/11 06:52:07;;;;;;;42.42;26.48;;;2.00;85.40;;;;;;5036049;28;20525;-87
2022/01/11 06:54:34;;;;;;;43.03;25.75;;;2.00;85.40;;;;;;5033915;28;20041;-86
2022/01/11 06:57:01;;;;;;;41.10;26.00;;;2.00;85.40;;;;;;5067629;28;20045;-88
2022/01/11 06:59:28;;;;;;;47.13;27.52;;;2.00;85.40;;;;;;5035654;28;20049;-89
2022/01/11 07:01:55;;;;;;;44.90;27.25;;;2.00;85.40;;;;;;5034298;28;20107;-89
2022/01/11 07:04:22;;;;;;;39.25;25.92;;;2.00;85.40;;;;;;5034648;28;20045;-88
2022/01/11 07:06:50;;;;;;;45.15;27.15;;;2.00;85.40;;;;;;5034870;28;20046;-87
2022/01/11 07:09:16;;;;;;;42.47;25.65;;;2.00;85.40;;;;;;5035244;28;20429;-87
2022/01/11 07:11:43;;;;;;;50.10;27.10;;;2.00;85.40;;;;;;5035391;28;20421;-88
2022/01/11 07:14:11;;;;;;;42.25;26.50;;;2.00;85.40;;;;;;5035393;28;20042;-88
2022/01/11 07:16:39;;;;;;;49.33;27.90;;;1.90;85.40;;;;;;5034050;28;20049;-87
2022/01/11 07:19:06;;;;;;;50.03;28.48;;;1.90;85.40;;;;;;5034427;28;20111;-87
2022/01/11 07:21:35;;;;;;;51.22;27.17;;;1.90;85.50;;;;;;5033526;28;20046;-87
2022/01/11 07:24:03;;;;;;;50.00;29.17;;;2.00;85.40;;;;;;5067413;28;20045;-87
2022/01/11 07:26:33;;;;;;;45.50;27.38;;;2.00;85.40;;;;;;5033851;28;20411;-87
2022/01/11 07:29:00;;;;;;;47.03;27.50;;;1.90;85.40;;;;;;5035131;28;20502;-87
2022/01/11 07:31:27;;;;;;;49.40;27.73;;;1.90;85.50;;;;;;5034881;28;20434;-87
2022/01/11 07:33:54;;;;;;;46.22;26.85;;;1.90;85.50;;;;;;5034446;28;20084;-88
2022/01/11 07:36:21;;;;;;;45.25;25.95;;;1.90;85.50;;;;;;5035322;28;20053;-87
2022/01/11 07:38:51;;;;;;;41.47;24.00;;;1.90;85.50;;;;;;5035191;28;20041;-87
2022/01/11 07:41:18;;;;;;;48.67;25.33;;;1.90;85.40;;;;;;5033905;28;20060;-87
2022/01/11 07:43:45;;;;;;;48.58;26.17;;;1.90;85.50;;;;;;5035114;28;20049;-87
2022/01/11 07:46:12;;;;;;;42.90;25.98;;;1.90;85.50;;;;;;5034753;28;20060;-87
2022/01/11 07:48:40;;;;;;;40.63;24.25;;;1.90;85.40;;;;;;5034138;28;20415;-86
2022/01/11 07:51:07;;;;;;;37.60;24.58;;;1.90;85.40;;;;;;5034732;28;20041;-88
2022/01/11 07:53:34;;;;;;;43.97;24.25;;;1.90;85.40;;;;;;5034535;28;20038;-87
2022/01/11 07:56:02;;;;;;;36.13;23.20;;;1.90;85.40;;;;;;5032481;28;20500;-87
2022/01/11 07:58:34;;;;;;;38.35;23.75;;;1.90;85.40;;;;;;5032401;28;20129;-87
2022/01/11 08:01:01;;;;;;;42.20;23.75;;;1.90;85.40;;;;;;5033484;28;20133;-87
2022/01/11 08:03:28;;;;;;;40.40;23.45;;;1.90;85.40;;;;;;5033398;28;20050;-87
2022/01/11 08:05:56;;;;;;;42.38;22.77;;;1.90;85.40;;;;;;5033910;28;20528;-86
2022/01/11 08:08:24;;;;;;;43.50;23.35;;;1.90;85.40;;;;;;5034013;28;20053;-87
2022/01/11 08:10:51;;;;;;;43.95;22.48;;;1.90;85.40;;;;;;5034000;28;20505;-86
2022/01/11 08:13:18;;;;;;;38.30;23.30;;;1.90;85.40;;;;;;5018766;28;20045;-87
2022/01/11 08:15:45;;;;;;;40.13;23.42;;;1.90;85.40;;;;;;5028820;28;20049;-86
2022/01/11 08:18:12;;;;;;;33.65;22.48;;;1.90;85.40;;;;;;5033885;28;20049;-87
2022/01/11 08:20:39;;;;;;;40.05;22.15;;;1.90;85.40;;;;;;5033628;28;20054;-86
2022/01/11 08:23:06;;;;;;;39.63;22.13;;;1.90;85.40;;;;;;5032805;28;20050;-87
2022/01/11 08:25:35;;;;;;;35.90;22.48;;;1.90;85.40;;;;;;5034036;28;20099;-87
2022/01/11 08:28:03;;;;;;;41.97;21.55;;;1.90;85.40;;;;;;5033590;28;20049;-86
2022/01/11 08:30:36;;;;;;;37.20;22.13;;;1.90;85.30;;;;;;5030930;28;20049;-87
2022/01/11 08:33:04;;;;;;;46.40;23.67;;;1.90;85.30;;;;;;5032378;28;20049;-87
2022/01/11 08:35:32;;;;;;;44.00;23.10;;;1.80;85.30;;;;;;5033213;28;20502;-86
2022/01/11 08:38:04;;;;;;;42.95;22.60;;;1.80;85.30;;;;;;5064329;28;20045;-86
2022/01/11 08:40:31;;;;;;;39.53;23.95;;;1.80;85.30;;;;;;5032563;28;20067;-87
2022/01/11 08:42:58;;;;;;;44.42;23.70;;;1.80;85.30;;;;;;5032142;28;20049;-87
2022/01/11 08:45:25;;;;;;;38.83;23.95;;;1.80;85.30;;;;;;5033039;28;20502;-87
2022/01/11 08:47:52;;;;;;;39.47;24.30;;;1.70;85.20;;;;;;5033616;28;20049;-87
2022/01/11 08:50:19;;;;;;;38.90;23.45;;;1.70;85.30;;;;;;5033008;28;20045;-87
2022/01/11 08:52:46;;;;;;;43.65;23.55;;;1.70;85.20;;;;;;5032300;28;20049;-87
2022/01/11 08:55:14;;;;;;;41.92;23.55;;;1.70;85.30;;;;;;5033310;28;20041;-87
2022/01/11 08:57:41;;;;;;;40.83;22.52;;;1.70;85.20;;;;;;5031929;28;20055;-87
2022/01/11 09:00:16;;;;;;;42.00;23.73;;;1.70;85.30;;;;;;5033081;28;20037;-87
2022/01/11 09:02:52;;;;;;;42.20;23.55;;;1.70;85.30;;;;;;5033167;28;20049;-87
2022/01/11 09:05:21;;;;;;;43.92;24.42;;;1.70;85.30;;;;;;5032612;28;20050;-88
2022/01/11 09:07:49;;;;;;;45.97;24.63;;;1.70;85.30;;;;;;5031280;28;20140;-86
2022/01/11 09:10:16;;;;;;;41.78;23.35;;;1.70;85.30;;;;;;5032418;28;20049;-86
2022/01/11 09:12:43;;;;;;;39.78;22.98;;;1.70;85.30;;;;;;5030412;28;20048;-87
2022/01/11 09:15:11;;;;;;;40.33;23.33;;;1.70;85.30;;;;;;5031595;28;20049;-88
2022/01/11 09:17:38;;;;;;;40.35;22.73;;;1.70;85.30;;;;;;5032878;28;20052;-88
2022/01/11 09:20:07;;;;;;;39.45;23.52;;;1.70;85.30;;;;;;5032378;28;20045;-86
2022/01/11 09:22:34;;;;;;;38.85;23.08;;;1.60;85.30;;;;;;5032773;28;20063;-87
2022/01/11 09:25:02;;;;;;;38.72;22.52;;;1.70;85.30;;;;;;5032650;28;20049;-87
2022/01/11 09:27:29;;;;;;;38.45;22.08;;;1.60;85.30;;;;;;5029160;28;20049;-87
2022/01/11 09:30:00;;;;;;;37.25;21.65;;;1.60;85.20;;;;;;5033143;28;20413;-87
2022/01/11 09:32:27;;;;;;;37.00;22.45;;;1.60;85.20;;;;;;5032611;28;20548;-87
2022/01/11 09:34:54;;;;;;;37.35;22.95;;;1.60;85.20;;;;;;5032176;28;20053;-87
2022/01/11 09:37:23;;;;;;;40.88;22.33;;;1.60;85.20;;;;;;5033054;28;20041;-86
2022/01/11 09:39:50;;;;;;;37.13;22.17;;;1.60;85.20;;;;;;5030574;28;20067;-88
2022/01/11 09:42:18;;;;;;;42.83;24.33;;;1.60;85.20;;;;;;5030890;28;20073;-89
2022/01/11 09:44:47;;;;;;;35.35;21.23;;;1.50;85.20;;;;;;5031302;28;20493;-88
2022/01/11 09:47:15;;;;;;;37.47;22.00;;;1.50;85.20;;;;;;5032741;28;20037;-87
2022/01/11 09:49:43;;;;;;;44.97;23.35;;;1.50;85.20;;;;;;5031971;28;20052;-87
2022/01/11 09:52:12;;;;;;;37.53;22.27;;;1.50;85.20;;;;;;5032676;28;20948;-87
2022/01/11 09:54:46;;;;;;;37.85;22.15;;;1.50;85.30;;;;;;5031707;28;20430;-87
2022/01/11 09:57:13;;;;;;;44.30;23.67;;;1.50;85.30;;;;;;5031845;28;20061;-87
2022/01/11 09:59:41;;;;;;;37.55;21.58;;;1.50;85.30;;;;;;5032423;28;20528;-87
2022/01/11 10:02:09;;;;;;;38.72;22.98;;;1.50;85.30;;;;;;5032537;28;20049;-87
2022/01/11 10:04:37;;;;;;;38.70;21.88;;;1.50;85.30;;;;;;5031892;28;20096;-86
2022/01/11 10:07:11;;;;;;;39.90;23.10;;;1.50;85.30;;;;;;5032419;28;20521;-87
2022/01/11 10:09:48;;;;;;;43.25;24.25;;;1.50;85.30;;;;;;5030635;28;20045;-87
2022/01/11 10:12:18;;;;;;;41.05;23.00;;;1.50;85.30;;;;;;5033379;28;20061;-86
2022/01/11 10:14:57;;;;;;;37.20;22.27;;;1.50;85.30;;;;;;5032106;28;20048;-87
2022/01/11 10:17:27;;;;;;;37.70;23.60;;;1.50;85.40;;;;;;5032789;28;20129;-87
2022/01/11 10:20:10;;;;;;;38.03;22.45;;;1.50;85.30;;;;;;5032662;28;20512;-86
2022/01/11 10:22:53;;;;;;;40.22;23.15;;;1.50;85.40;;;;;;5032676;28;20421;-87
2022/01/11 10:25:21;;;;;;;40.00;24.30;;;1.50;85.40;;;;;;5017067;28;20049;-87
2022/01/11 10:28:01;;;;;;;40.00;24.42;;;1.50;85.40;;;;;;5031996;28;20136;-88
2022/01/11 10:30:30;;;;;;;39.95;22.52;;;1.50;85.40;;;;;;5030598;28;20494;-88
2022/01/11 10:33:00;;;;;;;41.97;23.83;;;1.50;85.40;;;;;;5031375;28;20056;-87
2022/01/11 10:35:43;;;;;;;38.42;23.95;;;1.60;85.40;;;;;;5032693;28;20046;-90
2022/01/11 10:38:24;;;;;;;42.88;24.92;;;1.60;85.50;;;;;;5033039;28;20136;-89
2022/01/11 10:40:52;;;;;;;41.83;23.40;;;1.60;85.50;;;;;;5033989;28;20049;-89
2022/01/11 10:43:22;;;;;;;41.60;24.42;;;1.60;85.50;;;;;;5016230;28;20045;-89
2022/01/11 10:45:53;;;;;;;45.83;25.27;;;1.60;85.50;;;;;;5027820;28;20461;-89
2022/01/11 10:48:23;;;;;;;42.22;24.90;;;1.60;85.50;;;;;;5032706;28;20045;-90
2022/01/11 10:50:55;;;;;;;44.47;25.02;;;1.60;85.50;;;;;;5032511;28;20087;-90
2022/01/11 10:53:32;;;;;;;43.20;25.58;;;1.60;85.50;;;;;;5034602;28;20141;-90
2022/01/11 10:56:01;;;;;;;44.55;25.88;;;1.60;85.50;;;;;;5036087;28;20517;-91
2022/01/11 10:58:42;;;;;;;56.63;29.58;;;1.60;85.50;;;;;;5038460;28;20540;-89
2022/01/11 11:01:13;;;;;;;46.00;26.40;;;1.60;85.50;;;;;;5036220;28;20059;-91
2022/01/11 11:03:41;;;;;;;43.08;25.08;;;1.60;85.40;;;;;;5035230;28;20067;-91
2022/01/11 11:06:11;;;;;;;46.38;25.50;;;1.60;85.50;;;;;;5042960;28;20064;-90
2022/01/11 11:08:41;;;;;;;44.97;25.70;;;1.60;85.50;;;;;;5034207;28;20068;-91
2022/01/11 11:11:11;;;;;;;43.75;25.42;;;1.60;85.50;;;;;;5035780;28;20084;-91
2022/01/11 11:13:41;;;;;;;43.50;25.40;;;1.60;85.50;;;;;;5034799;28;20053;-88
2022/01/11 11:16:16;;;;;;;40.33;23.95;;;1.70;85.50;;;;;;5034633;28;20051;-88
2022/01/11 11:18:47;;;;;;;45.75;25.55;;;1.60;85.50;;;;;;5033682;28;20053;-87
2022/01/11 11:21:19;;;;;;;45.10;24.55;;;1.70;85.50;;;;;;5034540;28;20057;-87
2022/01/11 11:23:47;;;;;;;44.28;25.38;;;1.70;85.60;;;;;;5035002;28;20038;-88
2022/01/11 11:26:15;;;;;;;41.75;24.52;;;1.70;85.60;;;;;;5034373;28;20093;-87
2022/01/11 11:28:43;;;;;;;49.67;25.73;;;1.70;85.60;;;;;;5034285;28;20052;-88
2022/01/11 11:31:10;;;;;;;45.35;25.05;;;1.70;85.60;;;;;;5035658;28;20065;-89
2022/01/11 11:33:39;;;;;;;45.00;25.35;;;1.70;85.60;;;;;;5034413;28;20056;-88
2022/01/11 11:36:09;;;;;;;42.55;25.73;;;1.80;85.60;;;;;;5035248;28;20052;-89
2022/01/11 11:38:43;;;;;;;45.47;25.25;;;1.80;85.70;;;;;;5032988;28;20061;-88
2022/01/11 11:41:12;;;;;;;;;;;1.90;85.70;;;;;;5034638;28;20050;-89
2022/01/11 11:43:39;;;;;;;42.70;24.70;;;1.90;85.70;;;;;;5034022;28;20520;-88
2022/01/11 11:46:06;;;;;;;43.22;24.40;;;1.90;85.70;;;;;;5034847;28;20492;-88
2022/01/11 11:48:33;;;;;;;41.15;24.77;;;1.90;85.70;;;;;;5033781;28;20045;-87
2022/01/11 11:51:10;;;;;;;44.75;26.48;;;1.90;85.70;;;;;;5065982;28;20056;-88
2022/01/11 11:53:39;;;;;;;42.88;25.23;;;2.00;85.70;;;;;;5033995;28;20053;-91
2022/01/11 11:56:22;;;;;;;41.72;24.38;;;2.00;85.70;;;;;;5034517;28;20128;-89
2022/01/11 11:58:57;;;;;;;42.67;24.60;;;2.00;85.70;;;;;;5034451;28;20045;-88
2022/01/11 12:01:41;;;;;;;40.72;23.83;;;2.00;85.70;;;;;;5019499;28;20055;-88
2022/01/11 12:04:12;;;;;;;49.50;26.80;;;2.10;85.70;;;;;;5033851;28;20056;-88
2022/01/11 12:06:41;;;;;;;41.33;24.40;;;2.10;85.70;;;;;;5032520;28;20049;-88
2022/01/11 12:09:20;;;;;;;39.75;23.48;;;2.10;85.70;;;;;;5034343;28;20418;-88
2022/01/11 12:11:50;;;;;;;39.92;25.42;;;2.20;85.70;;;;;;5034227;28;20045;-88
2022/01/11 12:14:35;;;;;;;44.55;25.33;;;2.20;85.60;;;;;;5034001;28;20510;-88
2022/01/11 12:17:22;;;;;;;39.42;24.70;;;2.20;85.60;;;;;;5066153;28;20053;-88
2022/01/11 12:19:54;;;;;;;41.50;24.02;;;2.30;85.60;;;;;;5033798;28;20052;-88
2022/01/11 12:22:27;;;;;;;41.53;24.63;;;2.30;85.60;;;;;;5018313;28;20047;-87
2022/01/11 12:24:58;;;;;;;39.80;24.80;;;2.30;85.60;;;;;;5033020;28;20053;-87
2022/01/11 12:27:25;;;;;;;37.90;25.15;;;2.30;85.60;;;;;;5034514;28;20495;-88
2022/01/11 12:30:17;;;;;;;41.38;24.98;;;2.30;85.60;;;;;;5032506;28;20045;-88
2022/01/11 12:33:19;;;;;;;40.33;24.75;;;2.40;85.60;;;;;;5033574;28;20106;-87
2022/01/11 12:35:58;;;;;;;44.38;25.50;;;2.40;85.60;;;;;;5031777;28;20052;-88
2022/01/11 12:38:28;;;;;;;42.40;27.25;;;2.40;85.50;;;;;;5032507;28;20052;-88
2022/01/11 12:40:55;;;;;;;37.08;23.23;;;2.40;85.50;;;;;;5033515;28;20141;-88
2022/01/11 12:43:48;;;;;;;40.75;25.70;;;2.50;85.50;;;;;;5033472;28;20049;-88
2022/01/11 12:46:17;;;;;;;45.10;24.42;;;2.50;85.40;;;;;;5032596;28;20049;-88
2022/01/11 12:51:41;;;;;;;40.60;25.30;;;2.50;85.40;;;;;;5032656;28;20061;-89
2022/01/11 12:54:22;;;;;;;42.00;24.58;;;2.50;85.40;;;;;;5065076;28;20049;-88
2022/01/11 12:57:02;;;;;;;38.28;24.33;;;2.60;85.50;;;;;;5032936;28;20494;-88
2022/01/11 12:59:35;;;;;;;39.70;25.50;;;2.70;85.50;;;;;;5033352;28;20049;-88
2022/01/11 13:02:07;;;;;;;42.42;25.92;;;2.70;85.60;;;;;;5033344;28;20087;-88